RYR1UN LIBD-LBSF
Flight info
| Callsign | RYR1UN |
|---|---|
| Flight time | 0h 56m |
| Altitude | 37000 |
| Route | VURKE DCT PAPIZ DCT MAVAR DCT BUREK DCT SKJ DCT SIN/N0336F190 T215 VELBA T343 MOREK |
| Aircraft | B738/M-SDE2E3FGHIRWXY/LB1 |
Departure
| Time | 2026-05-04 20:12 |
|---|---|
| Airport | Bari Karol Wojtyła International Airport (LIBD) |
Arrival
| Time | 2026-05-04 21:08 |
|---|---|
| Airport | Sofia Airport (LBSF) |
| Time | Latitude | Longitude | Altitude | Speed | Heading |
|---|---|---|---|---|---|
| 2026-05-04 18:39 | 41.13676 | 16.76386 | 157 ft | 0 kts | 26° |
| 2026-05-04 20:05 | 41.13677 | 16.76386 | 157 ft | 0 kts | 26° |
| 2026-05-04 20:06 | 41.13681 | 16.76396 | 157 ft | 3 kts | 63° |
| 2026-05-04 20:06 | 41.13692 | 16.76465 | 157 ft | 12 kts | 75° |
| 2026-05-04 20:06 | 41.13767 | 16.76538 | 157 ft | 18 kts | 347° |
| 2026-05-04 20:06 | 41.13770 | 16.76427 | 157 ft | 14 kts | 245° |
| 2026-05-04 20:07 | 41.13726 | 16.76283 | 157 ft | 19 kts | 252° |
| 2026-05-04 20:07 | 41.13674 | 16.76095 | 157 ft | 24 kts | 249° |
| 2026-05-04 20:07 | 41.13610 | 16.75869 | 157 ft | 28 kts | 249° |
| 2026-05-04 20:07 | 41.13543 | 16.75637 | 157 ft | 20 kts | 248° |
| 2026-05-04 20:08 | 41.13496 | 16.75467 | 157 ft | 19 kts | 249° |
| 2026-05-04 20:08 | 41.13449 | 16.75303 | 157 ft | 19 kts | 249° |
| 2026-05-04 20:08 | 41.13405 | 16.75142 | 157 ft | 18 kts | 249° |
| 2026-05-04 20:08 | 41.13359 | 16.74990 | 157 ft | 18 kts | 249° |
| 2026-05-04 20:09 | 41.13318 | 16.74841 | 157 ft | 17 kts | 250° |
| 2026-05-04 20:09 | 41.13278 | 16.74697 | 157 ft | 16 kts | 250° |
| 2026-05-04 20:09 | 41.13239 | 16.74559 | 157 ft | 16 kts | 249° |
| 2026-05-04 20:09 | 41.13201 | 16.74427 | 157 ft | 15 kts | 249° |
| 2026-05-04 20:10 | 41.13166 | 16.74300 | 157 ft | 14 kts | 250° |
| 2026-05-04 20:10 | 41.13190 | 16.74189 | 155 ft | 8 kts | 301° |
| 2026-05-04 20:10 | 41.13233 | 16.74126 | 151 ft | 11 kts | 330° |
| 2026-05-04 20:10 | 41.13308 | 16.74138 | 148 ft | 13 kts | 58° |
| 2026-05-04 20:11 | 41.13341 | 16.74250 | 149 ft | 13 kts | 70° |
| 2026-05-04 20:11 | 41.13386 | 16.74413 | 149 ft | 39 kts | 70° |
| 2026-05-04 20:11 | 41.13575 | 16.75078 | 147 ft | 113 kts | 70° |
| 2026-05-04 20:11 | 41.13923 | 16.76311 | 160 ft | 170 kts | 70° |
| 2026-05-04 20:12 | 41.14360 | 16.77800 | 845 ft | 169 kts | 70° |
| 2026-05-04 20:12 | 41.14755 | 16.79192 | 1800 ft | 167 kts | 72° |
| 2026-05-04 20:12 | 41.15177 | 16.80740 | 2277 ft | 191 kts | 71° |
| 2026-05-04 20:12 | 41.15655 | 16.82463 | 2882 ft | 202 kts | 70° |
| 2026-05-04 20:13 | 41.16160 | 16.84244 | 3488 ft | 212 kts | 69° |
| 2026-05-04 20:13 | 41.16703 | 16.86140 | 3829 ft | 230 kts | 69° |
| 2026-05-04 20:13 | 41.17282 | 16.88186 | 4277 ft | 244 kts | 69° |
| 2026-05-04 20:13 | 41.17888 | 16.90327 | 4843 ft | 257 kts | 68° |
| 2026-05-04 20:14 | 41.18529 | 16.92608 | 5602 ft | 263 kts | 70° |
| 2026-05-04 20:14 | 41.18808 | 16.95034 | 6260 ft | 274 kts | 91° |
| 2026-05-04 20:14 | 41.18743 | 16.97599 | 6949 ft | 281 kts | 89° |
| 2026-05-04 20:14 | 41.18968 | 17.00174 | 7731 ft | 282 kts | 78° |
| 2026-05-04 20:15 | 41.19400 | 17.02728 | 8575 ft | 284 kts | 76° |
| 2026-05-04 20:15 | 41.19878 | 17.05273 | 9438 ft | 284 kts | 75° |
| 2026-05-04 20:15 | 41.20360 | 17.07828 | 10249 ft | 286 kts | 76° |
| 2026-05-04 20:15 | 41.20850 | 17.10468 | 10609 ft | 306 kts | 76° |
| 2026-05-04 20:16 | 41.21368 | 17.13316 | 10830 ft | 328 kts | 76° |
| 2026-05-04 20:16 | 41.21901 | 17.16306 | 11373 ft | 337 kts | 76° |
| 2026-05-04 20:16 | 41.22435 | 17.19349 | 12094 ft | 340 kts | 76° |
| 2026-05-04 20:16 | 41.22969 | 17.22427 | 12834 ft | 344 kts | 76° |
| 2026-05-04 20:17 | 41.23507 | 17.25550 | 13566 ft | 349 kts | 76° |
| 2026-05-04 20:17 | 41.24049 | 17.28721 | 14275 ft | 354 kts | 76° |
| 2026-05-04 20:17 | 41.24595 | 17.31927 | 15001 ft | 357 kts | 76° |
| 2026-05-04 20:17 | 41.25144 | 17.35162 | 15740 ft | 360 kts | 76° |
| 2026-05-04 20:18 | 41.25696 | 17.38425 | 16465 ft | 364 kts | 76° |
| 2026-05-04 20:18 | 41.26253 | 17.41727 | 17175 ft | 368 kts | 76° |
| 2026-05-04 20:18 | 41.26817 | 17.45074 | 17877 ft | 373 kts | 76° |
| 2026-05-04 20:18 | 41.27384 | 17.48452 | 18555 ft | 377 kts | 76° |
| 2026-05-04 20:19 | 41.27958 | 17.51871 | 19152 ft | 381 kts | 76° |
| 2026-05-04 20:19 | 41.28536 | 17.55323 | 19749 ft | 385 kts | 75° |
| 2026-05-04 20:19 | 41.29119 | 17.58815 | 20349 ft | 389 kts | 75° |
| 2026-05-04 20:19 | 41.29707 | 17.62341 | 20938 ft | 392 kts | 75° |
| 2026-05-04 20:20 | 41.30299 | 17.65898 | 21514 ft | 396 kts | 75° |
| 2026-05-04 20:20 | 41.30896 | 17.69496 | 22073 ft | 401 kts | 75° |
| 2026-05-04 20:20 | 41.31499 | 17.73131 | 22639 ft | 404 kts | 75° |
| 2026-05-04 20:20 | 41.32106 | 17.76803 | 23192 ft | 408 kts | 75° |
| 2026-05-04 20:21 | 41.32717 | 17.80508 | 23728 ft | 412 kts | 74° |
| 2026-05-04 20:21 | 41.33333 | 17.84249 | 24176 ft | 416 kts | 74° |
| 2026-05-04 20:21 | 41.34573 | 17.91808 | 25114 ft | 421 kts | 74° |
| 2026-05-04 20:22 | 41.35197 | 17.95625 | 25560 ft | 424 kts | 74° |
| 2026-05-04 20:22 | 41.35824 | 17.99471 | 26007 ft | 427 kts | 74° |
| 2026-05-04 20:22 | 41.36454 | 18.03341 | 26432 ft | 430 kts | 74° |
| 2026-05-04 20:22 | 41.37089 | 18.07245 | 26855 ft | 432 kts | 74° |
| 2026-05-04 20:23 | 41.37725 | 18.11169 | 27281 ft | 435 kts | 74° |
| 2026-05-04 20:23 | 41.38355 | 18.15065 | 27692 ft | 438 kts | 74° |
| 2026-05-04 20:23 | 41.38995 | 18.19037 | 28098 ft | 440 kts | 74° |
| 2026-05-04 20:23 | 41.39648 | 18.23092 | 28491 ft | 443 kts | 74° |
| 2026-05-04 20:24 | 41.40286 | 18.27062 | 28864 ft | 446 kts | 74° |
| 2026-05-04 20:24 | 41.40935 | 18.31116 | 29246 ft | 449 kts | 74° |
| 2026-05-04 20:24 | 41.41586 | 18.35190 | 29615 ft | 451 kts | 74° |
| 2026-05-04 20:24 | 41.42028 | 18.37961 | 29856 ft | 453 kts | 73° |
| 2026-05-04 20:25 | 41.42896 | 18.43417 | 30303 ft | 457 kts | 73° |
| 2026-05-04 20:25 | 41.43555 | 18.47571 | 30582 ft | 459 kts | 73° |
| 2026-05-04 20:25 | 41.44001 | 18.50391 | 30788 ft | 460 kts | 74° |
| 2026-05-04 20:25 | 41.44876 | 18.55932 | 31185 ft | 463 kts | 74° |
| 2026-05-04 20:26 | 41.45323 | 18.58771 | 31379 ft | 464 kts | 74° |
| 2026-05-04 20:26 | 41.45986 | 18.62989 | 31665 ft | 466 kts | 74° |
| 2026-05-04 20:26 | 41.46647 | 18.67213 | 32015 ft | 465 kts | 74° |
| 2026-05-04 20:26 | 41.47305 | 18.71428 | 32441 ft | 463 kts | 74° |
| 2026-05-04 20:27 | 41.47958 | 18.75622 | 32870 ft | 461 kts | 74° |
| 2026-05-04 20:27 | 41.48609 | 18.79809 | 33251 ft | 460 kts | 74° |
| 2026-05-04 20:27 | 41.49256 | 18.83983 | 33606 ft | 460 kts | 74° |
| 2026-05-04 20:27 | 41.49894 | 18.88103 | 33973 ft | 459 kts | 74° |
| 2026-05-04 20:28 | 41.50544 | 18.92313 | 34335 ft | 457 kts | 74° |
| 2026-05-04 20:28 | 41.51176 | 18.96412 | 34632 ft | 457 kts | 74° |
| 2026-05-04 20:28 | 41.51823 | 19.00622 | 34896 ft | 457 kts | 74° |
| 2026-05-04 20:28 | 41.52460 | 19.04774 | 35170 ft | 457 kts | 74° |
| 2026-05-04 20:29 | 41.53095 | 19.08928 | 35468 ft | 456 kts | 74° |
| 2026-05-04 20:29 | 41.53717 | 19.13011 | 35742 ft | 456 kts | 74° |
| 2026-05-04 20:29 | 41.54357 | 19.17215 | 36003 ft | 456 kts | 74° |
| 2026-05-04 20:29 | 41.54977 | 19.21304 | 36260 ft | 455 kts | 74° |
| 2026-05-04 20:30 | 41.55603 | 19.25443 | 36535 ft | 455 kts | 74° |
| 2026-05-04 20:30 | 41.56229 | 19.29587 | 36794 ft | 455 kts | 74° |
| 2026-05-04 20:30 | 41.56851 | 19.33721 | 37044 ft | 455 kts | 74° |
| 2026-05-04 20:30 | 41.57473 | 19.37862 | 37145 ft | 457 kts | 74° |
| 2026-05-04 20:31 | 41.58720 | 19.46194 | 37147 ft | 456 kts | 75° |
| 2026-05-04 20:31 | 41.59949 | 19.54466 | 37146 ft | 452 kts | 75° |
| 2026-05-04 20:32 | 41.61163 | 19.62671 | 37150 ft | 449 kts | 75° |
| 2026-05-04 20:32 | 41.62366 | 19.70837 | 37154 ft | 447 kts | 75° |
| 2026-05-04 20:33 | 41.63562 | 19.78996 | 37149 ft | 447 kts | 75° |
| 2026-05-04 20:33 | 41.64753 | 19.87167 | 37163 ft | 448 kts | 75° |
| 2026-05-04 20:34 | 41.65942 | 19.95366 | 37156 ft | 450 kts | 75° |
| 2026-05-04 20:34 | 41.67129 | 20.03598 | 37166 ft | 452 kts | 75° |
| 2026-05-04 20:35 | 41.68314 | 20.11860 | 37152 ft | 453 kts | 75° |
| 2026-05-04 20:35 | 41.69496 | 20.20149 | 37155 ft | 454 kts | 75° |
| 2026-05-04 20:36 | 41.70675 | 20.28459 | 37162 ft | 455 kts | 75° |
| 2026-05-04 20:36 | 41.71851 | 20.36785 | 37167 ft | 456 kts | 75° |
| 2026-05-04 20:37 | 41.73020 | 20.45118 | 37167 ft | 456 kts | 76° |
| 2026-05-04 20:37 | 41.74185 | 20.53469 | 37164 ft | 456 kts | 76° |
| 2026-05-04 20:38 | 41.75343 | 20.61810 | 37168 ft | 455 kts | 76° |
| 2026-05-04 20:38 | 41.76492 | 20.70138 | 37166 ft | 454 kts | 76° |
| 2026-05-04 20:39 | 41.77632 | 20.78446 | 37161 ft | 453 kts | 76° |
| 2026-05-04 20:39 | 41.78764 | 20.86738 | 37164 ft | 452 kts | 76° |
| 2026-05-04 20:40 | 41.79885 | 20.95001 | 37163 ft | 450 kts | 76° |
| 2026-05-04 20:40 | 41.81000 | 21.03259 | 37164 ft | 450 kts | 76° |
| 2026-05-04 20:41 | 41.82107 | 21.11506 | 37170 ft | 449 kts | 76° |
| 2026-05-04 20:41 | 41.83213 | 21.19676 | 37167 ft | 447 kts | 74° |
| 2026-05-04 20:42 | 41.84981 | 21.27674 | 37148 ft | 444 kts | 68° |
| 2026-05-04 20:42 | 41.86931 | 21.35470 | 37143 ft | 444 kts | 68° |
| 2026-05-04 20:43 | 41.88842 | 21.43356 | 37139 ft | 445 kts | 68° |
| 2026-05-04 20:43 | 41.90716 | 21.51277 | 37136 ft | 445 kts | 69° |
| 2026-05-04 20:44 | 41.92583 | 21.59195 | 37121 ft | 445 kts | 69° |
| 2026-05-04 20:44 | 41.93903 | 21.67320 | 37133 ft | 445 kts | 81° |
| 2026-05-04 20:45 | 41.94396 | 21.75565 | 37125 ft | 439 kts | 82° |
| 2026-05-04 20:45 | 41.94615 | 21.79596 | 37104 ft | 426 kts | 82° |
| 2026-05-04 20:45 | 41.94836 | 21.83499 | 37098 ft | 411 kts | 82° |
| 2026-05-04 20:46 | 41.95060 | 21.87265 | 36817 ft | 400 kts | 81° |
| 2026-05-04 20:46 | 41.95288 | 21.90957 | 36234 ft | 396 kts | 81° |
| 2026-05-04 20:46 | 41.95528 | 21.94706 | 35042 ft | 410 kts | 81° |
| 2026-05-04 20:46 | 41.95773 | 21.98528 | 34522 ft | 405 kts | 81° |
| 2026-05-04 20:47 | 41.96005 | 22.02257 | 34119 ft | 397 kts | 81° |
| 2026-05-04 20:47 | 41.96232 | 22.05910 | 33718 ft | 389 kts | 82° |
| 2026-05-04 20:47 | 41.96456 | 22.09522 | 33348 ft | 387 kts | 82° |
| 2026-05-04 20:47 | 41.96679 | 22.13113 | 32969 ft | 384 kts | 82° |
| 2026-05-04 20:48 | 41.96898 | 22.16674 | 32619 ft | 382 kts | 83° |
| 2026-05-04 20:48 | 41.97115 | 22.20215 | 32262 ft | 379 kts | 83° |
| 2026-05-04 20:48 | 41.97329 | 22.23738 | 31920 ft | 379 kts | 84° |
| 2026-05-04 20:48 | 41.97545 | 22.27303 | 31593 ft | 389 kts | 84° |
| 2026-05-04 20:49 | 41.97767 | 22.30978 | 31228 ft | 399 kts | 85° |
| 2026-05-04 20:49 | 41.97988 | 22.34688 | 30848 ft | 397 kts | 85° |
| 2026-05-04 20:49 | 41.98119 | 22.38380 | 30348 ft | 398 kts | 90° |
| 2026-05-04 20:49 | 41.98059 | 22.42100 | 29751 ft | 394 kts | 93° |
| 2026-05-04 20:50 | 41.97945 | 22.45738 | 29297 ft | 385 kts | 93° |
| 2026-05-04 20:50 | 41.97825 | 22.49242 | 28908 ft | 376 kts | 93° |
| 2026-05-04 20:50 | 41.97710 | 22.52746 | 28544 ft | 366 kts | 93° |
| 2026-05-04 20:50 | 41.97609 | 22.56084 | 28193 ft | 357 kts | 92° |
| 2026-05-04 20:51 | 41.97513 | 22.59430 | 27833 ft | 350 kts | 92° |
| 2026-05-04 20:51 | 41.97423 | 22.62661 | 27490 ft | 343 kts | 92° |
| 2026-05-04 20:51 | 41.97335 | 22.65856 | 27176 ft | 342 kts | 92° |
| 2026-05-04 20:51 | 41.97247 | 22.69052 | 26867 ft | 353 kts | 92° |
| 2026-05-04 20:52 | 41.97152 | 22.72471 | 26524 ft | 369 kts | 91° |
| 2026-05-04 20:52 | 41.97058 | 22.75860 | 26137 ft | 365 kts | 91° |
| 2026-05-04 20:52 | 41.96962 | 22.79248 | 25641 ft | 360 kts | 91° |
| 2026-05-04 20:52 | 41.96866 | 22.82588 | 25134 ft | 356 kts | 91° |
| 2026-05-04 20:53 | 41.96875 | 22.85887 | 24612 ft | 351 kts | 80° |
| 2026-05-04 20:53 | 41.97606 | 22.88970 | 24079 ft | 345 kts | 61° |
| 2026-05-04 20:53 | 41.98997 | 22.91548 | 23575 ft | 339 kts | 45° |
| 2026-05-04 20:53 | 42.00646 | 22.93788 | 22802 ft | 340 kts | 44° |
| 2026-05-04 20:54 | 42.02361 | 22.96023 | 21875 ft | 346 kts | 43° |
| 2026-05-04 20:54 | 42.04104 | 22.98285 | 20983 ft | 350 kts | 43° |
| 2026-05-04 20:54 | 42.05861 | 23.00582 | 20124 ft | 354 kts | 43° |
| 2026-05-04 20:54 | 42.07627 | 23.02912 | 19282 ft | 356 kts | 44° |
| 2026-05-04 20:55 | 42.09397 | 23.05263 | 18462 ft | 358 kts | 44° |
| 2026-05-04 20:55 | 42.11168 | 23.07627 | 17551 ft | 359 kts | 44° |
| 2026-05-04 20:55 | 42.12939 | 23.09997 | 16642 ft | 358 kts | 44° |
| 2026-05-04 20:55 | 42.14700 | 23.12359 | 15762 ft | 357 kts | 44° |
| 2026-05-04 20:56 | 42.16454 | 23.14716 | 14912 ft | 355 kts | 45° |
| 2026-05-04 20:56 | 42.18195 | 23.17056 | 14075 ft | 352 kts | 45° |
| 2026-05-04 20:56 | 42.19918 | 23.19377 | 13168 ft | 348 kts | 45° |
| 2026-05-04 20:56 | 42.21622 | 23.21672 | 12270 ft | 345 kts | 45° |
| 2026-05-04 20:57 | 42.23311 | 23.23947 | 11377 ft | 341 kts | 45° |
| 2026-05-04 20:57 | 42.24977 | 23.26194 | 10530 ft | 337 kts | 45° |
| 2026-05-04 20:57 | 42.26627 | 23.28416 | 9649 ft | 332 kts | 45° |
| 2026-05-04 20:57 | 42.28258 | 23.30621 | 8702 ft | 330 kts | 45° |
| 2026-05-04 20:58 | 42.29905 | 23.32762 | 7809 ft | 328 kts | 41° |
| 2026-05-04 20:58 | 42.31659 | 23.34709 | 7293 ft | 316 kts | 38° |
| 2026-05-04 20:58 | 42.33310 | 23.36433 | 7419 ft | 287 kts | 37° |
| 2026-05-04 20:58 | 42.34830 | 23.38012 | 7437 ft | 264 kts | 37° |
| 2026-05-04 20:59 | 42.36238 | 23.39489 | 7482 ft | 250 kts | 38° |
| 2026-05-04 20:59 | 42.37627 | 23.40955 | 7533 ft | 260 kts | 38° |
| 2026-05-04 20:59 | 42.39078 | 23.42494 | 7557 ft | 268 kts | 38° |
| 2026-05-04 20:59 | 42.40548 | 23.44060 | 7554 ft | 269 kts | 38° |
| 2026-05-04 21:00 | 42.42007 | 23.45620 | 7540 ft | 266 kts | 38° |
| 2026-05-04 21:00 | 42.43452 | 23.47169 | 7537 ft | 264 kts | 38° |
| 2026-05-04 21:00 | 42.44882 | 23.48704 | 7553 ft | 261 kts | 38° |
| 2026-05-04 21:00 | 42.46311 | 23.50239 | 7547 ft | 263 kts | 38° |
| 2026-05-04 21:01 | 42.47742 | 23.51776 | 7512 ft | 263 kts | 38° |
| 2026-05-04 21:01 | 42.49197 | 23.53343 | 7138 ft | 269 kts | 38° |
| 2026-05-04 21:01 | 42.50642 | 23.54900 | 6843 ft | 268 kts | 38° |
| 2026-05-04 21:01 | 42.52097 | 23.56471 | 6556 ft | 268 kts | 37° |
| 2026-05-04 21:02 | 42.53556 | 23.58043 | 6264 ft | 267 kts | 37° |
| 2026-05-04 21:02 | 42.54986 | 23.59589 | 6140 ft | 259 kts | 37° |
| 2026-05-04 21:02 | 42.56377 | 23.61092 | 6018 ft | 252 kts | 37° |
| 2026-05-04 21:02 | 42.57725 | 23.62549 | 5917 ft | 244 kts | 37° |
| 2026-05-04 21:03 | 42.59033 | 23.63963 | 5798 ft | 236 kts | 36° |
| 2026-05-04 21:03 | 42.60473 | 23.64908 | 5614 ft | 229 kts | 11° |
| 2026-05-04 21:03 | 42.62032 | 23.65180 | 5424 ft | 223 kts | 4° |
| 2026-05-04 21:03 | 42.63550 | 23.65340 | 5249 ft | 214 kts | 3° |
| 2026-05-04 21:04 | 42.65006 | 23.65490 | 5054 ft | 208 kts | 3° |
| 2026-05-04 21:04 | 42.66434 | 23.65469 | 4810 ft | 204 kts | 340° |
| 2026-05-04 21:04 | 42.67469 | 23.64326 | 4709 ft | 192 kts | 297° |
| 2026-05-04 21:04 | 42.67956 | 23.62658 | 4480 ft | 189 kts | 292° |
| 2026-05-04 21:05 | 42.68331 | 23.60969 | 4240 ft | 184 kts | 283° |
| 2026-05-04 21:05 | 42.68565 | 23.59293 | 4009 ft | 177 kts | 279° |
| 2026-05-04 21:05 | 42.68698 | 23.57677 | 3769 ft | 166 kts | 276° |
| 2026-05-04 21:05 | 42.68792 | 23.56187 | 3570 ft | 155 kts | 275° |
| 2026-05-04 21:06 | 42.68876 | 23.54745 | 3360 ft | 153 kts | 274° |
| 2026-05-04 21:06 | 42.68958 | 23.53314 | 3158 ft | 153 kts | 273° |
| 2026-05-04 21:06 | 42.69042 | 23.51870 | 2941 ft | 154 kts | 273° |
| 2026-05-04 21:06 | 42.69129 | 23.50429 | 2738 ft | 153 kts | 272° |
| 2026-05-04 21:07 | 42.69215 | 23.48987 | 2516 ft | 151 kts | 273° |
| 2026-05-04 21:07 | 42.69297 | 23.47564 | 2323 ft | 150 kts | 273° |
| 2026-05-04 21:07 | 42.69376 | 23.46158 | 2103 ft | 149 kts | 275° |
| 2026-05-04 21:07 | 42.69463 | 23.44756 | 1898 ft | 148 kts | 276° |
| 2026-05-04 21:08 | 42.69553 | 23.43376 | 1749 ft | 140 kts | 276° |
| 2026-05-04 21:08 | 42.69618 | 23.42230 | 1747 ft | 100 kts | 275° |
| 2026-05-04 21:08 | 42.69601 | 23.41613 | 1747 ft | 36 kts | 248° |
| 2026-05-04 21:08 | 42.69521 | 23.41377 | 1746 ft | 23 kts | 245° |
| 2026-05-04 21:09 | 42.69433 | 23.41208 | 1745 ft | 23 kts | 199° |
| 2026-05-04 21:09 | 42.69283 | 23.41162 | 1746 ft | 22 kts | 193° |
| 2026-05-04 21:09 | 42.69140 | 23.41107 | 1749 ft | 21 kts | 221° |
| 2026-05-04 21:09 | 42.69088 | 23.40923 | 1744 ft | 21 kts | 253° |
| 2026-05-04 21:10 | 42.69061 | 23.40738 | 1748 ft | 20 kts | 281° |
| 2026-05-04 21:10 | 42.69084 | 23.40609 | 1748 ft | 6 kts | 260° |
| 2026-05-04 21:10 | 42.69040 | 23.40578 | 1748 ft | 10 kts | 195° |
| 2026-05-04 21:10 | 42.69025 | 23.40573 | 1745 ft | 0 kts | 195° |